• Join FlightAware (Why Join?)
  • Login
  • US Flag 
09:10AM EDT


 

Airport Tracker/Info


-or-


 

Live Flight TrackerFlight Track Log ✈ VOZ1485 ✈ 25-Sep-2013 ✈ YPPH / PER - YBRM / BME

Flight Track Log - Related Links

Times and Time Zones

All times are in EDT time to prevent confusion due to time zone crossing. See the VOZ1485 flight status page for this flight to view local times or setup timezone preferences in your user account.

Time Position Orientation Groundspeed Altitude Reporting Facility
EDT Latitude Longitude Course Direction KTS MPH feet Rate Location/Type
11:40PM -31.9460 115.9630 157° South 121 139  Level FlightAware
11:41PM -31.9865 115.9495 19° North 3,800 1,320 Climbing Aus ATC (Calculated)
11:41PM -31.9660 115.9580 157° South 149 171 600 -3,300 Descending FlightAware
11:41PM -31.9890 115.9510 194° South 168 193 1,600 1,380 Climbing FlightAware
11:42PM -32.0110 115.9460 191° South 198 228 1,900 1,320 Climbing FlightAware
11:42PM -32.0310 115.9590 151° Southeast 219 252 2,800 2,400 Climbing FlightAware
11:42PM -32.0360 115.9730 113° Southeast 223 257 3,500 2,220 Climbing FlightAware
11:43PM -32.0420 115.9970 106° East 247 284 3,900 1,980 Climbing FlightAware
11:43PM -32.0510 116.0370 105° East 274 315 5,100 2,400 Climbing FlightAware
11:43PM -32.0580 116.0650 106° East 283 326 5,900 2,580 Climbing FlightAware
11:44PM -32.0640 116.0910 105° East 292 336 6,700 2,460 Climbing FlightAware
11:44PM -32.0700 116.1150 106° East 296 341 7,400 3,180 Climbing FlightAware
11:44PM -32.0790 116.1570 104° East 299 344 8,800 3,360 Climbing FlightAware
11:45PM -32.0840 116.1810 104° East 307 353 9,500 2,220 Climbing FlightAware
11:45PM -32.0820 116.2150 86° East 322 371 10,300 1,740 Climbing FlightAware
11:45PM -32.0650 116.2470 58° Northeast 337 388 10,700 2,280 Climbing FlightAware
11:46PM -32.0270 116.2940 46° Northeast 348 400 12,200 2,460 Climbing FlightAware
11:46PM -31.9870 116.3430 46° Northeast 353 406 13,600 2,220 Climbing FlightAware
11:47PM -31.9410 116.4010 47° Northeast 377 434 15,000 2,040 Climbing FlightAware
11:48PM -31.9050 116.4460 47° Northeast 380 437 16,000 1,920 Climbing FlightAware
11:48PM -31.8540 116.5090 46° Northeast 397 457 17,300 1,920 Climbing FlightAware
11:49PM -31.8090 116.5650 47° Northeast 404 465 18,400 1,800 Climbing FlightAware
11:49PM -31.7700 116.6130 46° Northeast 418 481 19,300 1,800 Climbing FlightAware
11:50PM -31.7230 116.6710 46° Northeast 425 489 20,400 1,800 Climbing FlightAware
11:50PM -31.6795 116.7247 46° Northeast 424 488 21,400 1,560 Climbing Aus ATC (RADAR)
11:51PM -31.6750 116.7300 46° Northeast 432 497 21,300 480 Descending FlightAware
11:51PM -31.6190 116.8000 47° Northeast 441 507 21,800 1,860 Climbing FlightAware
11:52PM -31.5590 116.8680 44° Northeast 433 498 23,800 2,880 Climbing FlightAware
11:52PM -31.5350 116.8850 31° Northeast 432 497 24,200 1,680 Climbing FlightAware
11:53PM -31.4780 116.9100 21° North 425 489 25,100 1,740 Climbing FlightAware
11:53PM -31.3915 116.9456 21° North 425 489 26,500 1,560 Climbing Aus ATC (RADAR)
11:54PM -31.3770 116.9520 21° North 426 490 26,600 120 Climbing FlightAware
11:54PM -31.3170 116.9760 21° North 426 490 26,600 2,040 Level FlightAware
11:54PM -31.2995 116.9838 21° North 419 482 28,000 2,820 Climbing Aus ATC (RADAR)
11:55PM -31.2332 117.0104 21° North 433 498 28,400 300 Climbing Aus ATC (RADAR)
11:55PM -31.2270 117.0130 21° North 428 493 28,200 480 Descending FlightAware
11:56PM -31.1410 117.0490 20° North 442 509 28,800 720 Climbing FlightAware
11:56PM -31.0990 117.0650 18° North 452 520 29,200 840 Climbing FlightAware
11:57PM -31.0270 117.0950 20° North 458 527 29,800 960 Climbing FlightAware
11:57PM -30.9630 117.1210 19° North 460 529 30,300 1,320 Climbing FlightAware
11:58PM -30.8762 117.1559 19° North 462 532 31,200 900 Climbing Aus ATC (RADAR)
11:58PM -30.9040 117.1450 19° North 463 533 30,800 1,020 Descending FlightAware
11:58PM -30.7961 117.1915 19° North 467 537 31,900 1,260 Climbing Aus ATC (RADAR)
11:58PM -30.8060 117.1870 19° North 468 539 31,600 660 Descending FlightAware
11:59PM -30.7370 117.2190 22° Northeast 456 525 32,300 1,200 Climbing FlightAware
12:00AM -30.6566 117.2562 22° Northeast 462 532 33,100 780 Climbing Aus ATC (RADAR)
12:00AM -30.6670 117.2520 22° Northeast 461 531 32,900 540 Descending FlightAware
12:00AM -30.5710 117.2960 22° Northeast 455 524 33,500 600 Climbing FlightAware
12:01AM -30.5340 117.3130 22° Northeast 465 535 33,700 300 Climbing FlightAware
12:02AM -30.4170 117.3670 22° Northeast 469 540 34,000 1,020 Climbing FlightAware
12:02AM -30.3761 117.3848 22° Northeast 472 543 34,600 1,680 Climbing Aus ATC (RADAR)
12:02AM -30.3220 117.4100 21° North 467 537 34,900 360 Climbing FlightAware
12:03AM -30.2540 117.4420 22° Northeast 465 535 35,000 60 Climbing FlightAware
12:04AM -30.1600 117.4840 21° North 483 556 35,000  Level FlightAware
12:05AM -30.0560 117.5310 21° North 484 557 35,000  Level FlightAware
12:05AM -29.9790 117.5660 21° North 485 558 35,000  Level FlightAware
12:06AM -29.8960 117.6040 22° Northeast 483 556 35,000  Level FlightAware
12:06AM -29.8300 117.6340 22° Northeast 483 556 35,000 120 Level FlightAware
12:07AM -29.7355 117.6760 22° Northeast 481 554 35,200  Climbing Aus ATC (RADAR)
12:07AM -29.7350 117.6770 22° Northeast 481 554 35,000 -240 Descending FlightAware
12:08AM -29.6440 117.7180 21° North 483 556 35,000  Level FlightAware
12:09AM -29.5660 117.7530 21° North 480 552 35,000  Level FlightAware
12:09AM -29.4980 117.7840 22° Northeast 481 554 35,000  Level FlightAware
12:10AM -29.4320 117.8130 21° North 481 554 35,000  Level FlightAware
12:10AM -29.3690 117.8410 21° North 482 555 35,000 120 Level FlightAware
12:11AM -29.2786 117.8808 21° North 482 555 35,200  Climbing Aus ATC (RADAR)
12:11AM -29.2660 117.8870 21° North 482 555 35,000 -300 Descending FlightAware
12:12AM -29.2020 117.9150 21° North 482 555 35,000  Level FlightAware
12:12AM -29.1380 117.9430 21° North 482 555 35,000  Level FlightAware
12:13AM -29.0740 117.9710 21° North 482 555 35,000  Level FlightAware
12:13AM -29.0090 118.0000 21° North 482 555 35,000  Level FlightAware
12:14AM -28.9450 118.0280 21° North 482 555 35,000  Level FlightAware
12:15AM -28.8800 118.0570 21° North 482 555 35,000  Level FlightAware
12:15AM -28.8160 118.0850 21° North 482 555 35,000 120 Level FlightAware
12:16AM -28.6478 118.1585 21° North 488 562 35,200  Climbing Aus ATC (RADAR)
12:16AM -28.7520 118.1130 21° North 482 555 35,000 -360 Descending FlightAware
12:16AM -28.6890 118.1400 21° North 482 555 35,000  Level FlightAware
12:17AM -28.6250 118.1680 21° North 482 555 35,000  Level FlightAware
12:18AM -28.5610 118.1960 21° North 482 555 35,000  Level FlightAware
12:18AM -28.4980 118.2240 21° North 482 555 35,000  Level FlightAware
12:19AM -28.4340 118.2520 21° North 482 555 35,000  Level FlightAware
12:19AM -28.3700 118.2800 21° North 482 555 35,000  Level FlightAware
12:20AM -28.3060 118.3070 20° North 482 555 35,000  Level FlightAware
12:21AM -27.9675 118.4513 22° Northeast 37,000  Climbing Aus ATC (Calculated)
12:22AM -27.8168 118.5179 22° Northeast 37,000 -180 Level Aus ATC (Calculated)
12:23AM -27.8074 118.5169 20° North  Level Estimated
12:24AM -27.6567 118.5833 20° North  Level Estimated
12:25AM -27.5436 118.6293 20° North  Level Estimated
12:26AM -27.4305 118.6752 20° North  Level Estimated
12:26AM -27.3550 118.7209 22° Northeast 37,000  Level Aus ATC (Calculated)
12:28AM -27.1853 118.7893 20° North  Level Estimated
12:29AM -27.0721 118.8347 20° North  Level Estimated
12:30AM -26.9589 118.8800 20° North  Level Estimated
12:31AM -26.8457 118.9253 20° North  Level Estimated
12:31AM -26.7036 119.0038 22° Northeast 37,000  Level Aus ATC (Calculated)
12:33AM -26.5147 119.0784 19° North  Level Estimated
12:34AM -26.4013 119.1230 19° North  Level Estimated
12:35AM -26.2880 119.1676 19° North  Level Estimated
12:35AM -26.2685 119.2041 19° North 835 961 35,200  Level Aus ATC (RADAR)
12:35AM -26.2266 119.2100 North 648 746 35,200  Level Aus ATC (RADAR)
12:38AM -25.8512 119.3694 21° North 483 556 35,200  Level Aus ATC (RADAR)
12:39AM -25.7894 119.3946 20° North 481 554 35,200  Level Aus ATC (RADAR)
12:39AM -25.7192 119.4207 19° North 467 537 35,200  Level Aus ATC (RADAR)
12:40AM -25.6264 119.4596 21° North 470 541 35,200  Level Aus ATC (RADAR)
12:40AM -25.5634 119.4872 22° Northeast 479 551 35,200  Level Aus ATC (RADAR)
12:41AM -25.4822 119.5189 19° North 472 543 35,200  Level Aus ATC (RADAR)
12:42AM -25.3870 119.5597 21° North 480 552 35,200 -60 Level Aus ATC (RADAR)
12:43AM -25.2127 119.6312 20° North 474 545 35,100 -60 Descending Aus ATC (RADAR)
12:44AM -25.1705 119.6494 21° North 478 550 35,100  Level Aus ATC (RADAR)
12:44AM -25.1000 119.6769 19° North 469 540 35,100  Level Aus ATC (RADAR)
12:45AM -24.9737 119.7298 21° North 484 557 35,100  Level Aus ATC (RADAR)
12:46AM -24.9018 119.7586 20° North 479 551 35,100  Level Aus ATC (RADAR)
12:46AM -24.8090 119.7966 20° North 475 547 35,100  Level Aus ATC (RADAR)
12:47AM -24.7465 119.8226 21° North 478 550 35,100  Level Aus ATC (RADAR)
12:48AM -24.5919 119.8852 20° North 475 547 35,100  Level Aus ATC (RADAR)
12:48AM -24.5610 119.8977 20° North 472 543 35,100  Level Aus ATC (RADAR)
12:49AM -24.4778 119.9315 20° North 476 548 35,100  Level Aus ATC (RADAR)
12:50AM -24.3842 119.9697 20° North 478 550 35,100  Level Aus ATC (RADAR)
12:51AM -24.2992 120.0046 20° North 486 559 35,100  Level Aus ATC (RADAR)
12:51AM -24.2073 120.0415 20° North 477 549 35,100  Level Aus ATC (RADAR)
12:52AM -24.1350 120.0707 20° North 475 547 35,100  Level Aus ATC (RADAR)
12:53AM -23.9902 120.1293 20° North 476 548 35,100 120 Level Aus ATC (RADAR)
12:54AM -23.9278 120.1545 20° North 475 547 35,300 660 Climbing Aus ATC (RADAR)
12:54AM -23.8652 120.1796 20° North 479 551 35,800 960 Climbing Aus ATC (RADAR)
12:55AM -23.7614 120.2206 20° North 479 551 36,600 720 Climbing Aus ATC (RADAR)
12:56AM -23.6894 120.2511 21° North 432 497 36,900 300 Climbing Aus ATC (RADAR)
12:56AM -23.5947 120.2882 20° North 454 522 37,100 120 Climbing Aus ATC (RADAR)
12:57AM -23.5282 120.3160 21° North 444 511 37,100  Level Aus ATC (RADAR)
12:58AM -23.3521 120.3857 20° North 466 536 37,100  Level Aus ATC (RADAR)
12:59AM -23.3010 120.4060 20° North 467 537 37,100  Level Aus ATC (RADAR)
12:59AM -23.2170 120.4386 20° North 474 545 37,100  Level Aus ATC (RADAR)
01:00AM -23.1154 120.4792 20° North 468 539 37,100  Level Aus ATC (RADAR)
01:01AM -23.0442 120.5075 20° North 466 536 37,100  Level Aus ATC (RADAR)
01:02AM -22.9536 120.5440 20° North 464 534 37,100  Level Aus ATC (RADAR)
01:02AM -22.9014 120.5639 19° North 467 537 37,100  Level Aus ATC (RADAR)
01:03AM -22.7209 120.6359 20° North 460 529 37,100  Level Aus ATC (RADAR)
01:04AM -22.6726 120.6560 21° North 454 522 37,100  Level Aus ATC (RADAR)
01:04AM -22.6030 120.6833 20° North 453 521 37,100  Level Aus ATC (RADAR)
01:05AM -22.5020 120.7222 20° North 458 527 37,100  Level Aus ATC (RADAR)
01:06AM -22.4325 120.7497 20° North 457 526 37,100  Level Aus ATC (RADAR)
01:07AM -22.3312 120.7883 19° North 461 531 37,100  Level Aus ATC (RADAR)
01:07AM -22.2813 120.8084 20° North 458 527 37,100  Level Aus ATC (RADAR)
01:09AM -22.1126 120.8749 20° North 454 522 37,100 -60 Level Aus ATC (RADAR)
01:09AM -22.0631 120.8943 20° North 453 521 37,000 -120 Descending Aus ATC (RADAR)
01:10AM -21.9946 120.9216 20° North 450 518 37,000  Level Aus ATC (RADAR)
01:10AM -21.9157 120.9525 20° North 450 518 37,000  Level Aus ATC (RADAR)
01:11AM -21.8462 120.9793 20° North 451 519 37,000  Level Aus ATC (RADAR)
01:12AM -21.7570 121.0139 20° North 451 519 37,000  Level Aus ATC (RADAR)
01:12AM -21.7075 121.0332 20° North 451 519 37,000  Level Aus ATC (RADAR)
01:13AM -21.5777 121.0826 20° North 453 521 37,000  Level Aus ATC (RADAR)
01:14AM -21.4977 121.1131 19° North 453 521 37,000  Level Aus ATC (RADAR)
01:14AM -21.4678 121.1245 20° North 454 522 37,000  Level Aus ATC (RADAR)
01:15AM -21.3986 121.1515 20° North 453 521 37,000  Level Aus ATC (RADAR)
01:15AM -21.2998 121.1900 20° North 451 519 37,000  Level Aus ATC (RADAR)
01:16AM -21.2320 121.2176 21° North 449 517 37,000  Level Aus ATC (RADAR)
01:16AM -21.2020 121.2285 19° North 449 517 37,000  Level Aus ATC (RADAR)
01:20AM -20.7004 121.4237 20° North 37,000  Level Aus ATC (Calculated)
01:22AM -20.5591 121.4784 20° North  Level FlightAware Approximate
01:23AM -20.4461 121.5221 20° North  Level FlightAware Approximate
01:23AM -20.3778 121.5485 20° North 37,000  Level Aus ATC (Calculated)
01:23AM -20.2971 121.5796 20° North 37,000  Level Aus ATC (Calculated)
01:25AM -20.1528 121.6352 20° North  Level FlightAware Approximate
01:26AM -20.0389 121.6790 20° North  Level FlightAware Approximate
01:26AM -20.0648 121.6684 360° North 9,300  Level Aus ATC (Calculated)
01:26AM -20.0648 121.6684 20° North 9,300  Level Aus ATC (Calculated)
01:27AM -19.9648 121.7066 199° South 9,300  Level Aus ATC (Calculated)
01:29AM -20.1818 121.6252 199° South  Level FlightAware Approximate
01:29AM -19.7263 121.7974 20° North 9,300  Level Aus ATC (Calculated)
01:30AM -19.6458 121.8280 200° South 9,300  Level Aus ATC (Calculated)
01:32AM -19.8473 121.7517 200° South  Level FlightAware Approximate
01:32AM -19.4193 121.9138 20° North 9,300  Level Aus ATC (Calculated)
01:32AM -19.2966 121.9602 200° South 9,300  Level Aus ATC (Calculated)
01:34AM -19.4126 121.9164 200° South  Level FlightAware Approximate
01:35AM -19.2940 121.9421 20° North  Level Estimated
01:35AM -19.0282 122.0615 20° North 9,300  Level Aus ATC (Calculated)
01:37AM -18.8152 122.1416 20° North  Level FlightAware Approximate
01:38AM -18.7011 122.1844 20° North  Level FlightAware Approximate
01:38AM -18.6590 122.2002 20° North 9,300  Level Aus ATC (Calculated)
01:40AM -18.4650 122.2728 20° North  Level FlightAware Approximate
01:41AM -18.3508 122.3155 20° North  Level FlightAware Approximate
01:41AM -18.3761 122.2771 175° South 500  Level Aus ATC (Calculated)
01:43AM -18.5811 122.2971 175° South  Level FlightAware Approximate
01:44AM -18.4605 122.2853 355° North  Level FlightAware Approximate
01:44AM -18.1305 122.2532 355° North 500  Level Aus ATC (Calculated)
01:45AM -18.0077 122.2413 352° North 500  Level Aus ATC (Calculated)
01:46AM -17.9447 122.2317 175° South  Level Estimated
01:47AM -17.9447 122.2317 175° South  Level Estimated
01:47AM -17.9463 122.2353 360° North  Level Aus ATC (Calculated)
01:47AM -17.9463 122.2353 295° West  Level Aus ATC (Calculated)
01:48AM -17.9447 122.2317 174° South  Level Estimated
01:49AM -17.9447 122.2317 175° South  Level Estimated
01:50AM -17.9447 122.2317 355° North  Level Estimated